Etusivu
METAR-TAF:

METAR-TAF

Lentoasemat :

La Rochelle, Ranska

Leveyspiiri: 46-10-45N, Pituuspiiri: 1-11-43W, korkeus merenpinnasta: 23 m

Tämänhetkinen sää

Tämä raportti tehtiin 30 minuuttia sitten, kello 04.00 UTC
Tuuli 6 kn idästä/koillisesta
Lämpötila 10°C
Kosteus 87%
Ilmanpaine 1025 hPa
Näkyvyys: 6000 m

METAR: LFBH 210400Z AUTO 07006KT 6000 NSC 10/08 Q1025 TEMPO 3000 BR

Aika: 06:30 (04:30 UTC)

Sääennuste

Tämä raportti tehtiin 5 tuntia ja 30 minuuttia sitten, kello 23.00 UTC
Ennuste voimassa 21. päivästä klo 00 UTC - 21. päivään klo 24 UTC
Tuuli 10 kn koillisesta
Näkyvyys 10 km tai enemmän
ei pilviä alle 1500 m:ssä eikä cumulonimbus-pilviä
Todennäköisyys 30% :
Ajoittain
21. päivästä klo 03 UTC - 21. päivään klo 07 UTC
Näkyvyys: 3000 m
utua

TAF: LFBH 202300Z 2100/2124 05010KT CAVOK PROB30 TEMPO 2103/2107 3000 BR

Säähavainnot ja -ennusteet yli 4000 lentoasemalta (METAR- ja TAF-raportit).

Käytössä olevat sääasemat on merkitty karttaan keltaisilla ja punaisilla pisteillä.

Aseta hiiri pisteen päälle nähdäksesi sääaseman nimen.

Klikkaa sitten nähdäksesi säähavainnot ja -ennusteet.

Kartan vaihtaminen: klikkaa mustalla rastilla varustettuja vihreitä pisteitä, niin voit zoomata sisään; viivalla varustettua vihreää pistettä, niin voit zoomata ulos tai vihreitä nuolia, niin pääset viereisille kartoille.


METAR-TAF: